createdAt,value
2023-02-14T00:00:36.742Z,21.46
2023-02-14T00:01:36.786Z,21.35
2023-02-14T00:02:37.329Z,21.26
2023-02-14T00:03:37.705Z,21.26
2023-02-14T00:04:36.797Z,21.30
2023-02-14T00:05:36.756Z,21.12
2023-02-14T00:06:36.761Z,21.17
2023-02-14T00:07:36.715Z,21.16
2023-02-14T00:08:36.723Z,21.12
2023-02-14T00:09:36.730Z,21.19
2023-02-14T00:10:36.722Z,21.14
2023-02-14T00:11:36.693Z,21.17
2023-02-14T00:12:36.694Z,21.14
2023-02-14T00:13:36.693Z,21.14
2023-02-14T00:14:36.657Z,21.17
2023-02-14T00:15:36.713Z,21.15
2023-02-14T00:16:36.625Z,21.14
2023-02-14T00:17:36.676Z,21.13
2023-02-14T00:18:36.693Z,21.11
2023-02-14T00:19:36.810Z,21.15
2023-02-14T00:20:36.618Z,21.07
2023-02-14T00:21:36.678Z,21.08
2023-02-14T00:22:36.629Z,21.08
2023-02-14T00:23:36.735Z,21.06
2023-02-14T00:24:36.681Z,21.05
2023-02-14T00:25:37.682Z,21.06
2023-02-14T00:26:36.741Z,21.06
2023-02-14T00:27:36.700Z,21.03
2023-02-14T00:28:36.670Z,21.07
2023-02-14T00:29:36.651Z,21.08
2023-02-14T00:30:36.718Z,21.10
2023-02-14T00:31:36.738Z,21.07
2023-02-14T00:32:36.691Z,21.06
2023-02-14T00:33:37.702Z,21.05
2023-02-14T00:34:36.740Z,21.01
2023-02-14T00:35:36.638Z,21.06
2023-02-14T00:36:36.641Z,21.08
2023-02-14T00:37:36.678Z,21.04
2023-02-14T00:38:36.740Z,21.00
2023-02-14T00:39:36.852Z,21.05
2023-02-14T00:40:36.725Z,20.96
2023-02-14T00:41:36.680Z,20.90
2023-02-14T00:42:36.730Z,21.03
2023-02-14T00:43:36.843Z,21.01
2023-02-14T00:44:36.727Z,20.99
2023-02-14T00:46:56.354Z,21.08
2023-02-14T02:47:00.158Z,18.74
2023-02-14T02:55:37.764Z,19.37
2023-02-14T02:56:38.282Z,18.91
2023-02-14T02:57:37.680Z,18.85
2023-02-14T02:58:37.745Z,18.80
2023-02-14T02:59:37.793Z,18.78
2023-02-14T03:00:37.786Z,18.75
2023-02-14T03:01:37.805Z,18.73
2023-02-14T03:02:37.807Z,18.69
2023-02-14T03:03:37.916Z,18.69
2023-02-14T03:04:37.923Z,18.70
2023-02-14T03:05:37.978Z,18.70
2023-02-14T03:06:38.991Z,18.68
2023-02-14T03:07:39.125Z,18.67
2023-02-14T03:08:38.116Z,18.67
2023-02-14T03:09:38.175Z,18.66
2023-02-14T03:10:38.278Z,18.67
2023-02-14T03:11:38.246Z,18.65
2023-02-14T03:12:38.324Z,18.64
2023-02-14T03:13:38.321Z,18.64
2023-02-14T03:14:38.355Z,18.63
2023-02-14T03:15:38.464Z,18.65
2023-02-14T03:16:38.455Z,18.64
2023-02-14T03:17:38.574Z,18.63
2023-02-14T03:18:38.614Z,18.62
2023-02-14T03:19:38.579Z,18.62
2023-02-14T03:20:38.591Z,18.61
2023-02-14T03:21:38.731Z,18.63
2023-02-14T03:22:38.705Z,18.62
2023-02-14T03:50:52.726Z,19.03
2023-02-14T03:53:11.614Z,18.74
2023-02-14T03:58:17.311Z,19.16
2023-02-14T04:06:09.692Z,18.99
2023-02-14T04:07:10.717Z,18.67
2023-02-14T07:00:40.844Z,19.50
2023-02-14T07:12:57.839Z,20.81
2023-02-14T07:15:15.283Z,20.59
2023-02-14T07:16:15.221Z,20.16
2023-02-14T07:17:15.260Z,20.10
2023-02-14T07:18:14.924Z,20.17
2023-02-14T07:19:15.032Z,19.85
2023-02-14T07:20:14.967Z,19.61
2023-02-14T07:21:14.965Z,19.77
2023-02-14T07:22:14.975Z,19.88
2023-02-14T07:23:15.159Z,20.08
2023-02-14T07:24:14.923Z,19.88
2023-02-14T07:25:14.938Z,19.61
2023-02-14T07:26:14.921Z,19.83
2023-02-14T07:27:14.938Z,19.50
2023-02-14T07:28:14.926Z,19.67
2023-02-14T07:29:14.899Z,19.85
2023-02-14T07:30:14.979Z,19.61
2023-02-14T07:31:14.970Z,19.88
2023-02-14T07:32:14.938Z,19.56
2023-02-14T07:33:14.924Z,19.84
2023-02-14T07:34:14.970Z,19.88
2023-02-14T07:35:15.441Z,19.92
2023-02-14T07:36:15.097Z,19.54
2023-02-14T07:37:15.217Z,19.38
2023-02-14T07:53:12.819Z,19.94
2023-02-14T07:54:12.100Z,19.90
2023-02-14T07:59:51.661Z,20.11
2023-02-14T08:49:00.707Z,21.17
2023-02-14T08:53:59.392Z,20.33
2023-02-14T08:54:59.610Z,19.86
2023-02-14T08:59:20.159Z,21.03
2023-02-14T09:03:02.106Z,20.34
2023-02-14T09:06:25.903Z,20.00
2023-02-14T10:25:46.205Z,19.15
2023-02-14T10:35:57.791Z,19.97
2023-02-14T11:52:22.948Z,19.00
2023-02-14T11:53:23.008Z,18.82
2023-02-14T11:54:23.578Z,18.41
2023-02-14T12:18:19.743Z,19.28
2023-02-14T12:19:20.811Z,18.98
2023-02-14T12:20:19.668Z,19.66
2023-02-14T12:21:19.541Z,19.19
2023-02-14T12:22:19.395Z,19.02
2023-02-14T12:23:19.505Z,18.93
2023-02-14T12:24:19.365Z,18.86
2023-02-14T12:25:19.484Z,18.32
2023-02-14T12:26:19.396Z,18.36
2023-02-14T12:27:19.456Z,18.39
2023-02-14T12:28:20.341Z,17.99
2023-02-14T12:29:19.315Z,18.25
2023-02-14T12:30:19.528Z,18.05
2023-02-14T12:31:19.360Z,17.96
2023-02-14T12:32:19.523Z,17.75
2023-02-14T12:33:19.506Z,17.63
2023-02-14T12:34:19.338Z,17.62
2023-02-14T12:35:19.245Z,17.60
2023-02-14T12:54:55.248Z,18.48
2023-02-14T12:57:13.093Z,17.72
2023-02-14T12:58:13.570Z,17.83
2023-02-14T12:59:13.045Z,17.87
2023-02-14T13:00:12.897Z,17.80
2023-02-14T13:20:32.560Z,18.91
2023-02-14T13:29:27.292Z,19.85
2023-02-14T13:35:47.325Z,18.77
2023-02-14T13:43:45.710Z,20.26
2023-02-14T13:46:02.088Z,19.85
2023-02-14T13:47:08.189Z,19.32
2023-02-14T13:50:49.741Z,19.73
2023-02-14T13:53:10.442Z,19.65
2023-02-14T13:55:27.165Z,19.77
2023-02-14T13:56:26.997Z,19.61
2023-02-14T13:57:26.965Z,19.55
2023-02-14T13:58:27.476Z,19.51
2023-02-14T13:59:26.893Z,19.44
2023-02-14T14:00:26.814Z,18.61
2023-02-14T14:01:26.792Z,17.89
2023-02-14T14:03:46.138Z,18.51
2023-02-14T14:04:46.100Z,18.47
2023-02-14T14:08:02.216Z,18.42
2023-02-14T14:10:43.471Z,19.06
2023-02-14T14:12:58.185Z,19.77
2023-02-14T14:13:58.044Z,18.94
2023-02-14T14:14:57.832Z,18.84
2023-02-14T14:15:57.924Z,18.95
2023-02-14T14:16:57.963Z,19.16
2023-02-14T14:17:57.736Z,19.27
2023-02-14T14:18:57.698Z,19.43
2023-02-14T14:19:57.715Z,19.43
2023-02-14T14:20:57.701Z,19.47
2023-02-14T14:21:57.671Z,19.73
2023-02-14T14:22:57.618Z,19.90
2023-02-14T14:23:57.798Z,19.95
2023-02-14T14:24:57.759Z,19.94
2023-02-14T14:25:57.923Z,19.82
2023-02-14T14:26:57.736Z,19.78
2023-02-14T14:27:57.648Z,19.68
2023-02-14T14:28:57.703Z,19.67
2023-02-14T14:29:57.598Z,19.58
2023-02-14T14:30:57.640Z,19.61
2023-02-14T14:31:57.688Z,19.53
2023-02-14T14:32:57.671Z,19.48
2023-02-14T14:33:57.562Z,19.52
2023-02-14T14:34:57.528Z,19.51
2023-02-14T14:35:57.946Z,19.48
2023-02-14T14:37:11.314Z,18.55
2023-02-14T14:37:58.103Z,18.35
2023-02-14T14:46:19.835Z,20.11
2023-02-14T14:50:58.600Z,20.33
2023-02-14T14:51:59.204Z,18.84
2023-02-14T14:52:58.394Z,18.91
2023-02-14T14:53:58.353Z,19.12
2023-02-14T14:54:58.321Z,19.34
2023-02-14T14:55:58.804Z,19.48
2023-02-14T14:56:58.767Z,19.62
2023-02-14T14:57:58.291Z,19.79
2023-02-14T14:58:58.281Z,19.95
2023-02-14T14:59:58.239Z,20.00
2023-02-14T15:00:58.331Z,19.93
2023-02-14T15:01:58.279Z,19.95
2023-02-14T15:02:58.329Z,19.94
2023-02-14T15:03:58.342Z,19.90
2023-02-14T15:04:58.320Z,19.87
2023-02-14T15:05:58.666Z,19.89
2023-02-14T15:06:58.401Z,19.93
2023-02-14T15:07:58.462Z,20.04
2023-02-14T15:08:58.517Z,20.01
2023-02-14T15:09:58.632Z,19.91
2023-02-14T15:10:58.889Z,19.94
2023-02-14T15:11:58.768Z,20.03
2023-02-14T15:12:58.712Z,20.07
2023-02-14T15:13:58.862Z,20.10
2023-02-14T15:14:58.797Z,20.28
2023-02-14T15:15:58.832Z,20.23
2023-02-14T15:16:58.871Z,20.09
2023-02-14T15:17:59.334Z,20.04
2023-02-14T15:36:13.031Z,20.42
2023-02-14T15:37:13.167Z,20.35
2023-02-14T15:38:12.910Z,20.27
2023-02-14T15:39:12.766Z,20.24
2023-02-14T15:40:12.892Z,20.29
2023-02-14T15:41:12.751Z,20.08
2023-02-14T15:42:12.929Z,18.83
2023-02-14T15:43:12.765Z,18.41
2023-02-14T15:44:12.804Z,18.83
2023-02-14T15:45:12.822Z,18.75
2023-02-14T15:46:12.853Z,19.08
2023-02-14T15:47:12.756Z,19.19
2023-02-14T15:48:12.717Z,19.30
2023-02-14T15:49:12.714Z,19.51
2023-02-14T15:50:12.699Z,19.71
2023-02-14T15:51:12.637Z,19.97
2023-02-14T15:52:12.644Z,20.05
2023-02-14T15:53:13.731Z,20.32
2023-02-14T15:54:12.741Z,20.35
2023-02-14T15:55:12.733Z,20.38
2023-02-14T15:56:12.681Z,20.39
2023-02-14T15:57:12.731Z,20.41
2023-02-14T15:58:12.663Z,20.57
2023-02-14T15:59:12.695Z,20.65
2023-02-14T16:00:12.747Z,20.65
2023-02-14T16:01:12.658Z,20.62
2023-02-14T16:15:31.439Z,20.51
2023-02-14T17:30:02.480Z,20.74
2023-02-14T17:31:02.852Z,20.71
2023-02-14T17:32:02.417Z,20.76
2023-02-14T17:33:02.245Z,20.68
2023-02-14T17:34:02.202Z,20.68
2023-02-14T17:35:02.245Z,20.65
2023-02-14T17:36:02.200Z,20.70
2023-02-14T17:37:02.198Z,20.68
2023-02-14T17:38:02.178Z,20.76
2023-02-14T17:39:02.171Z,20.69
2023-02-14T17:40:02.172Z,20.69
2023-02-14T17:41:02.464Z,20.69
2023-02-14T17:42:02.183Z,20.76
2023-02-14T17:43:02.139Z,20.68
2023-02-14T17:44:02.157Z,20.92
2023-02-14T17:45:02.176Z,21.34
2023-02-14T17:46:02.145Z,21.19
2023-02-14T17:47:02.127Z,21.09
2023-02-14T17:48:02.121Z,21.08
2023-02-14T17:49:02.126Z,21.04
2023-02-14T17:50:02.177Z,21.05
2023-02-14T17:51:02.409Z,21.01
2023-02-14T17:52:02.152Z,20.98
2023-02-14T17:53:02.079Z,20.99
2023-02-14T17:54:02.090Z,20.97
2023-02-14T17:55:02.087Z,20.95
2023-02-14T17:56:02.046Z,20.93
2023-02-14T17:57:04.935Z,20.89
2023-02-14T18:03:22.749Z,21.65
2023-02-14T18:05:46.519Z,21.57
2023-02-14T18:06:46.822Z,21.10
2023-02-14T18:07:46.507Z,20.99
2023-02-14T18:08:46.530Z,20.91
2023-02-14T18:09:46.362Z,20.81
2023-02-14T18:10:46.386Z,20.93
2023-02-14T18:11:46.575Z,20.91
2023-02-14T18:12:46.640Z,20.91
2023-02-14T18:13:46.550Z,20.87
2023-02-14T18:14:46.563Z,20.89
2023-02-14T18:15:46.574Z,20.86
2023-02-14T18:16:46.722Z,20.86
2023-02-14T18:17:46.695Z,20.90
2023-02-14T18:18:46.630Z,20.87
2023-02-14T18:19:46.680Z,20.86
2023-02-14T18:20:46.644Z,20.79
2023-02-14T18:21:46.629Z,20.87
2023-02-14T18:22:46.813Z,20.88
2023-02-14T18:23:46.657Z,20.93
2023-02-14T18:24:46.742Z,20.92
2023-02-14T18:27:05.656Z,20.92
2023-02-14T18:28:05.641Z,20.88
2023-02-14T18:29:05.613Z,20.85
2023-02-14T18:30:05.603Z,20.90
2023-02-14T18:31:05.635Z,20.92
2023-02-14T18:32:05.613Z,20.86
2023-02-14T18:33:05.515Z,20.87
2023-02-14T18:34:05.513Z,20.90
2023-02-14T18:36:24.638Z,20.90
2023-02-14T18:37:24.580Z,20.92
2023-02-14T18:38:24.555Z,20.93
2023-02-14T18:39:24.690Z,20.95
2023-02-14T18:40:24.499Z,20.96
2023-02-14T18:41:24.615Z,20.89
2023-02-14T18:44:11.638Z,21.53
2023-02-14T18:45:12.298Z,21.08
2023-02-14T18:46:11.938Z,21.07
2023-02-14T18:47:11.389Z,21.09
2023-02-14T18:48:11.282Z,21.05
2023-02-14T18:49:11.353Z,20.93
2023-02-14T18:50:11.362Z,21.03
2023-02-14T18:51:11.431Z,21.00
2023-02-14T18:52:11.437Z,20.94
2023-02-14T18:53:11.337Z,20.91
2023-02-14T18:54:11.459Z,20.94
2023-02-14T18:55:12.366Z,20.99
2023-02-14T18:56:11.339Z,20.93
2023-02-14T18:57:11.447Z,21.01
2023-02-14T18:58:11.322Z,20.97
2023-02-14T18:59:11.399Z,20.89
2023-02-14T19:00:12.287Z,20.90
2023-02-14T19:01:11.490Z,20.98
2023-02-14T19:02:11.441Z,20.98
2023-02-14T19:03:11.423Z,20.96
2023-02-14T19:04:11.375Z,20.95
2023-02-14T19:07:11.410Z,20.94
2023-02-14T19:08:11.505Z,21.05
2023-02-14T19:09:11.466Z,20.88
2023-02-14T19:10:11.413Z,20.94
2023-02-14T19:11:11.341Z,20.90
2023-02-14T19:12:11.369Z,20.94
2023-02-14T19:13:11.319Z,20.86
2023-02-14T19:14:11.449Z,20.94
2023-02-14T19:15:12.126Z,20.92
2023-02-14T19:16:11.366Z,20.92
2023-02-14T19:17:11.461Z,20.91
2023-02-14T19:18:11.296Z,20.87
2023-02-14T19:22:30.650Z,20.94
2023-02-14T19:23:30.263Z,20.99
2023-02-14T19:24:30.215Z,20.93
2023-02-14T19:25:31.005Z,20.84
2023-02-14T19:48:07.908Z,20.80
2023-02-14T19:53:08.017Z,20.75
2023-02-14T20:07:27.045Z,20.78
2023-02-14T20:08:26.971Z,20.66
2023-02-14T20:09:27.258Z,20.57
2023-02-14T20:10:27.644Z,20.76
2023-02-14T20:11:27.517Z,20.62
2023-02-14T20:15:47.799Z,21.34
2023-02-14T20:19:05.450Z,20.87
2023-02-14T20:32:38.911Z,20.83
2023-02-14T20:33:38.926Z,20.77
2023-02-14T20:34:38.871Z,20.73
2023-02-14T20:35:39.082Z,20.55
2023-02-14T20:36:38.984Z,20.75
2023-02-14T20:37:38.879Z,20.73
2023-02-14T20:38:38.880Z,20.85
2023-02-14T20:39:38.877Z,20.53
2023-02-14T20:40:38.878Z,20.52
2023-02-14T20:41:38.902Z,20.64
2023-02-14T20:42:38.930Z,20.54
2023-02-14T20:43:38.844Z,20.39
2023-02-14T20:44:38.879Z,20.63
2023-02-14T20:46:57.970Z,20.57
2023-02-14T20:47:57.880Z,20.60
2023-02-14T20:48:59.360Z,20.62
2023-02-14T20:49:57.753Z,20.28
2023-02-14T20:50:57.992Z,20.35
2023-02-14T20:51:57.775Z,20.38
2023-02-14T20:52:57.743Z,20.50
2023-02-14T20:53:57.741Z,20.41
2023-02-14T20:54:58.725Z,20.77
2023-02-14T20:55:57.730Z,20.49
2023-02-14T20:56:57.671Z,20.41
2023-02-14T20:57:57.762Z,20.73
2023-02-14T20:58:57.681Z,20.72
2023-02-14T21:01:16.548Z,20.71
2023-02-14T21:02:16.559Z,20.46
2023-02-14T21:03:16.557Z,20.57
2023-02-14T21:04:16.546Z,20.52
2023-02-14T21:06:36.053Z,20.63
2023-02-14T21:07:35.734Z,20.61
2023-02-14T21:08:35.972Z,20.52
2023-02-14T21:09:36.003Z,20.57
2023-02-14T21:12:21.441Z,21.23
2023-02-14T21:13:21.094Z,20.73
2023-02-14T21:14:21.162Z,20.68
2023-02-14T21:15:21.201Z,20.68
2023-02-14T21:22:07.573Z,20.91
2023-02-14T21:23:07.317Z,20.68
2023-02-14T21:24:08.434Z,20.50
2023-02-14T21:25:08.850Z,20.47
2023-02-14T21:26:08.439Z,20.45
2023-02-14T21:27:07.401Z,20.40
2023-02-14T21:28:07.335Z,20.37
2023-02-14T21:29:07.378Z,20.27
2023-02-14T21:30:07.330Z,20.27
2023-02-14T21:31:07.347Z,20.41
2023-02-14T21:32:07.336Z,20.19
2023-02-14T21:33:07.320Z,20.34
2023-02-14T21:34:07.258Z,20.32
2023-02-14T21:35:07.248Z,20.33
2023-02-14T21:36:07.251Z,20.26
2023-02-14T21:37:07.204Z,20.16
2023-02-14T21:38:07.219Z,20.42
2023-02-14T21:39:07.218Z,20.30
2023-02-14T21:40:07.195Z,20.45
2023-02-14T21:41:07.227Z,20.42
2023-02-14T21:42:07.215Z,20.38
2023-02-14T21:43:07.143Z,20.65
2023-02-14T21:44:07.132Z,20.46
2023-02-14T21:45:07.158Z,20.43
2023-02-14T21:46:07.328Z,20.50
2023-02-14T21:47:07.231Z,20.32
2023-02-14T21:49:26.175Z,20.53
2023-02-14T21:50:26.167Z,20.41
2023-02-14T21:51:26.012Z,20.45
2023-02-14T21:52:25.986Z,20.55
2023-02-14T21:58:07.539Z,21.10
2023-02-14T22:00:24.260Z,20.75
2023-02-14T22:01:24.073Z,20.61
2023-02-14T22:02:24.106Z,20.68
2023-02-14T22:03:24.269Z,20.60
2023-02-14T22:04:24.066Z,20.43
2023-02-14T22:05:23.924Z,20.34
2023-02-14T22:06:23.939Z,20.52
2023-02-14T22:07:23.850Z,20.35
2023-02-14T22:08:23.853Z,20.46
2023-02-14T22:09:23.873Z,20.56
2023-02-14T22:10:23.913Z,20.49
2023-02-14T22:11:23.821Z,20.26
2023-02-14T22:20:35.473Z,20.92
2023-02-14T22:21:35.433Z,20.60
2023-02-14T22:32:47.980Z,20.81
2023-02-14T22:35:08.482Z,20.45
2023-02-14T22:40:20.209Z,21.13
2023-02-14T22:41:20.079Z,20.65
2023-02-14T22:42:20.017Z,20.46
2023-02-14T22:43:19.743Z,20.42
2023-02-14T22:44:19.802Z,20.21
2023-02-14T22:45:19.878Z,20.33
2023-02-14T22:46:20.022Z,20.37
2023-02-14T22:47:19.910Z,20.41
2023-02-14T22:48:20.053Z,20.29
2023-02-14T22:49:19.950Z,20.33
2023-02-14T22:50:20.096Z,20.48
2023-02-14T22:51:19.942Z,20.37
2023-02-14T22:53:40.798Z,20.42
2023-02-14T23:08:18.838Z,20.80
2023-02-14T23:11:46.867Z,21.12
2023-02-14T23:12:46.060Z,20.42
2023-02-14T23:13:45.810Z,20.55
2023-02-14T23:14:45.777Z,20.39
2023-02-14T23:36:05.507Z,20.28
2023-02-14T23:42:23.499Z,20.26
2023-02-14T23:43:23.385Z,20.16
2023-02-14T23:44:23.414Z,20.28
2023-02-14T23:45:24.377Z,20.06
2023-02-14T23:46:23.313Z,20.14
2023-02-14T23:47:23.345Z,20.19
2023-02-14T23:48:23.244Z,20.35
2023-02-14T23:49:23.264Z,20.22
2023-02-14T23:50:23.270Z,20.06
2023-02-14T23:51:23.308Z,20.26
2023-02-14T23:52:23.307Z,20.09
2023-02-14T23:53:23.224Z,20.22
2023-02-14T23:54:23.170Z,20.08
2023-02-14T23:55:23.330Z,20.23
2023-02-14T23:56:23.163Z,20.08
2023-02-14T23:57:23.233Z,20.09
2023-02-14T23:58:23.154Z,20.09
2023-02-14T23:59:23.185Z,20.22
